Terminal Aerodrome Forecast
Issued by NWS

Home | Current Version | Previous Version | Text Only | Print | Product List | Glossary Off
Versions: 1 2 3 4 5 6 7 8 9 10 11 12 13 14 15 16 17 18

295
FTUS41 KCLE 140901 AAB
TAFFDY
TAF AMD
KFDY 140901Z 1409/1506 32012KT P6SM OVC015
     FM141900 31005KT P6SM SCT035=

USA.gov is the U.S. government's official web portal to all federal, state and local government web resources and services.